Aviation Digital Data Service (ADDS)

Output produced by METARs form (0857 UTC 03 August 2021)
found at http://www.aviationweather.gov/metar/data/
 
KDUJ 030853Z AUTO 36003KT 10SM CLR 11/08 A3014 RMK AO2 SLP200 T01110078 55003
KDUJ 030753Z AUTO 00000KT 10SM CLR 12/09 A3014 RMK AO2 SLP199 T01170089
KDUJ 030653Z AUTO 00000KT 10SM CLR 12/09 A3015 RMK AO2 SLP202 T01220089
KDUJ 030553Z AUTO 00000KT 10SM CLR 13/08 A3015 RMK AO2 SLP202 T01280083 10206 20128 50001
KDUJ 030453Z AUTO 00000KT 10SM CLR 14/08 A3015 RMK AO2 SLP203 T01390083 402390111
KDUJ 030353Z AUTO 00000KT 10SM CLR 14/08 A3016 RMK AO2 SLP206 T01440083
KDUJ 030253Z AUTO 35003KT 10SM CLR 16/09 A3015 RMK AO2 SLP201 T01610089 53011
KDUJ 030153Z AUTO 01005KT 10SM CLR 17/09 A3014 RMK AO2 SLP198 T01720089
KDUJ 030053Z AUTO 34004KT 10SM CLR 18/09 A3012 RMK AO2 SLP193 T01830089
KDUJ 022353Z AUTO 32004KT 10SM CLR 21/08 A3011 RMK AO2 SLP191 T02060083 10239 20206 53006
KDUJ 022253Z AUTO 36006KT 10SM BKN060 23/08 A3010 RMK AO2 SLP184 T02280083
KDUJ 022153Z AUTO 29005KT 10SM SCT060 SCT070 22/09 A3009 RMK AO2 SLP184 T02170089
KDUJ 022053Z AUTO 35005KT 10SM BKN070 22/08 A3009 RMK AO2 SLP184 T02170083 56004
KDUJ 021953Z AUTO 01008KT 10SM BKN065 23/09 A3009 RMK AO2 SLP183 T02280089
KDUJ 021853Z AUTO 31007KT 10SM SCT055 BKN070 23/08 A3010 RMK AO2 SLP186 T02330083
KDUJ 021753Z AUTO VRB06G15KT 10SM SCT060 23/09 A3011 RMK AO2 SLP189 T02280089 10228 20144 58004
KDUJ 021653Z AUTO 33007KT 10SM SCT050 22/09 A3012 RMK AO2 SLP190 T02220094
KDUJ 021553Z AUTO 34010KT 10SM SCT044 20/09 A3012 RMK AO2 SLP194 T02000089
KDUJ 021453Z AUTO 02011KT 10SM FEW029 20/11 A3012 RMK AO2 SLP193 T02000106 51013
KDUJ 021353Z AUTO 34008KT 10SM CLR 18/12 A3011 RMK AO2 SLP189 T01780117
KDUJ 021253Z AUTO 35007KT 10SM FEW012 16/12 A3010 RMK AO2 SLP187 T01610117
KDUJ 021242Z AUTO 33007KT 10SM SCT009 16/12 A3010 RMK AO2 T01560122
KDUJ 021229Z AUTO 35006KT 10SM BKN009 15/12 A3009 RMK AO2 CIG 007V012 T01500122
KDUJ 021153Z AUTO 32004KT 10SM BKN012 14/12 A3008 RMK AO2 SLP180 70008 T01390122 10139 20111 51019
KDUJ 021136Z AUTO 33005KT 10SM FEW009 14/12 A3007 RMK AO2 T01390117
KDUJ 021123Z AUTO 33005KT 10SM SCT007 BKN013 13/12 A3007 RMK AO2 T01330117
KDUJ 021111Z AUTO 33006KT 10SM BKN007 13/12 A3007 RMK AO2 T01330117
KDUJ 021100Z AUTO 31006KT 8SM SCT007 13/11 A3006 RMK AO2 T01280111
KDUJ 021053Z AUTO 31005KT 8SM CLR 13/11 A3006 RMK AO2 SLP174 T01280111
KDUJ 021023Z AUTO 30004KT 9SM SCT006 SCT014 13/11 A3005 RMK AO2 T01280111
KDUJ 021006Z AUTO 31005KT 10SM BKN005 BKN014 13/12 A3004 RMK AO2 T01330117
KDUJ 020953Z AUTO 32004KT 10SM BKN004 OVC014 13/12 A3004 RMK AO2 CIG 004V009 SLP168 T01330117
KDUJ 020853Z AUTO 34007KT 5SM BR OVC004 13/11 A3002 RMK AO2 SLP162 T01280111 51009
KDUJ 020753Z AUTO 00000KT 9SM OVC009 12/11 A3001 RMK AO2 CIG 007V011 SLP158 T01220106
KDUJ 020739Z AUTO 23003KT 6SM BR BKN009 11/10 A3000 RMK AO2 T01110100
KDUJ 020730Z AUTO 00000KT 8SM SCT009 12/10 A3000 RMK AO2 T01170100
KDUJ 020653Z AUTO 26003KT 10SM FEW011 12/10 A2999 RMK AO2 SLP151 T01170100
KDUJ 020553Z AUTO 23005KT 10SM CLR 11/09 A2998 RMK AO2 SLP147 T01110094 10183 20111 50005
KDUJ 020453Z AUTO 27004KT 10SM FEW065 14/10 A2999 RMK AO2 SLP146 T01390100 402390122
KDUJ 020353Z AUTO 28004KT 10SM CLR 14/12 A2998 RMK AO2 SLP142 T01440117
KDUJ 020253Z AUTO 24003KT 10SM BKN100 14/12 A2997 RMK AO2 SLP140 T01440122 51019
KDUJ 020153Z AUTO 25004KT 10SM CLR 16/12 A2996 RMK AO2 SLP137 T01610117
KDUJ 020053Z AUTO 27006KT 10SM CLR 17/13 A2993 RMK AO2 SLP128 T01670133
KDUJ 012353Z AUTO 28006KT 10SM CLR 18/14 A2991 RMK AO2 SLP121 60008 T01830144 10228 20161 51006
KDUJ 012253Z AUTO 26006KT 10SM SCT095 19/16 A2990 RMK AO2 SLP118 T01940156
KDUJ 012153Z AUTO VRB05KT 10SM CLR 19/15 A2990 RMK AO2 SLP120 T01890150
KDUJ 030524Z 0306/0406 00000KT P6SM SKC 
     FM031500 11005KT P6SM SKC 
     FM040000 09003KT P6SM BKN100